Time;durP1;ratioP1;P1;durP2;ratioP2;P2;SDS_P1;SDS_P2;PMS_P1;PMS_P2;Temp;Humidity;BMP_temperature;BMP_pressure;BME280_temperature;BME280_humidity;BME280_pressure;Samples;Min_cycle;Max_cycle;Signal;HPM_P1;HPM_P2
2022/12/18 00:00:46;;;;;;;107.43;36.77;;;;;;;3.75;60.63;102960.16;5030397;28;20032;-70
2022/12/18 00:03:13;;;;;;;100.07;35.13;;;;;;;3.64;60.16;102957.59;5031687;28;20125;-70
2022/12/18 00:05:49;;;;;;;102.93;34.73;;;;;;;2.93;62.02;102945.72;5031350;28;20029;-71
2022/12/18 00:08:15;;;;;;;96.97;35.67;;;;;;;3.99;59.32;102948.28;5012865;28;20026;-71
2022/12/18 00:10:40;;;;;;;107.13;38.07;;;;;;;3.81;60.06;102949.88;5031969;28;20045;-69
2022/12/18 00:13:06;;;;;;;94.33;36.57;;;;;;;3.49;60.81;102949.06;5031082;28;20129;-70
2022/12/18 00:15:34;;;;;;;106.07;35.63;;;;;;;4.12;59.21;102959.59;5031815;28;20089;-69
2022/12/18 00:17:59;;;;;;;104.53;38.80;;;;;;;3.92;58.69;102957.78;5031974;28;20025;-70
2022/12/18 00:20:25;;;;;;;95.30;36.27;;;;;;;4.08;57.92;102947.50;5032311;28;20086;-70
2022/12/18 00:22:52;;;;;;;91.53;37.70;;;;;;;4.29;57.71;102932.34;5032174;28;20432;-70
2022/12/18 00:25:17;;;;;;;99.93;37.57;;;;;;;4.38;57.00;102925.41;5031531;28;20116;-71
2022/12/18 00:27:43;;;;;;;98.37;37.90;;;;;;;4.34;57.74;102916.00;5032566;28;20116;-69
2022/12/18 00:30:09;;;;;;;97.17;36.93;;;;;;;3.96;58.12;102926.44;5013501;28;20044;-70
2022/12/18 00:32:34;;;;;;;91.03;36.03;;;;;;;4.33;57.34;102931.09;5031773;28;20022;-72
2022/12/18 00:34:59;;;;;;;98.73;37.87;;;;;;;4.30;56.71;102931.34;5031953;28;20549;-68
2022/12/18 00:37:25;;;;;;;96.73;37.13;;;;;;;4.20;56.30;102927.84;5031520;28;20037;-71
2022/12/18 00:39:50;;;;;;;98.17;38.40;;;;;;;4.36;56.44;102935.34;5032065;28;20037;-71
2022/12/18 00:44:59;;;;;;;92.00;34.97;;;;;;;4.12;57.47;102940.97;5031182;28;20053;-71
2022/12/18 00:47:25;;;;;;;92.40;37.73;;;;;;;4.27;56.55;102928.97;5031408;28;20038;-71
2022/12/18 00:49:50;;;;;;;93.67;35.10;;;;;;;4.11;56.84;102935.75;5031474;28;20053;-70
2022/12/18 00:52:15;;;;;;;102.93;36.27;;;;;;;4.45;55.71;102918.53;5031809;28;20041;-69
2022/12/18 00:54:41;;;;;;;100.27;36.47;;;;;;;3.99;57.02;102936.81;5031424;28;20434;-71
2022/12/18 00:57:06;;;;;;;98.60;37.23;;;;;;;3.98;56.67;102938.63;5031680;28;20490;-70
2022/12/18 00:59:31;;;;;;;101.87;37.17;;;;;;;4.11;56.23;102936.59;5031566;28;20041;-69
2022/12/18 01:01:57;;;;;;;100.73;35.73;;;;;;;3.79;56.98;102935.00;5031170;28;20088;-70
2022/12/18 01:04:22;;;;;;;105.17;39.43;;;;;;;4.28;55.97;102930.69;5033030;28;20082;-70
2022/12/18 01:06:48;;;;;;;100.73;35.93;;;;;;;4.12;56.33;102935.63;5036199;28;20094;-70
2022/12/18 01:09:13;;;;;;;110.43;38.73;;;;;;;4.17;56.62;102929.91;5035319;28;20088;-71
2022/12/18 01:11:39;;;;;;;102.60;36.53;;;;;;;3.55;58.30;102936.09;5035422;28;20053;-69
2022/12/18 01:14:05;;;;;;;111.40;37.93;;;;;;;3.75;57.52;102945.06;5035412;28;20134;-70
2022/12/18 01:16:30;;;;;;;102.40;35.97;;;;;;;4.13;56.78;102944.44;5016894;28;20033;-70
2022/12/18 01:18:56;;;;;;;116.47;35.07;;;;;;;4.16;56.74;102930.88;5035725;28;20185;-69
2022/12/18 01:21:23;;;;;;;103.10;36.53;;;;;;;3.65;57.67;102930.84;5034934;28;20040;-69
2022/12/18 01:23:56;;;;;;;108.80;37.57;;;;;;;3.17;59.06;102941.09;5035142;28;20095;-69
2022/12/18 01:26:22;;;;;;;101.87;34.70;;;;;;;3.28;59.16;102942.88;5034864;28;20037;-69
2022/12/18 01:28:48;;;;;;;111.37;36.33;;;;;;;3.93;56.70;102932.03;5035015;28;20056;-70
2022/12/18 01:31:14;;;;;;;122.53;37.47;;;;;;;4.32;56.00;102917.94;5034413;28;20457;-70
2022/12/18 01:33:40;;;;;;;104.80;37.20;;;;;;;3.95;56.54;102924.75;5034846;28;20045;-71
2022/12/18 01:36:05;;;;;;;92.40;34.23;;;;;;;3.52;57.85;102939.00;5034756;28;20033;-70
2022/12/18 01:38:30;;;;;;;105.57;35.73;;;;;;;3.87;57.18;102936.03;5034821;28;20037;-70
2022/12/18 01:41:03;;;;;;;98.60;35.60;;;;;;;3.89;56.75;102934.06;5016930;28;20033;-70
2022/12/18 01:43:43;;;;;;;92.07;33.50;;;;;;;3.92;55.51;102933.84;5032488;28;20047;-68
2022/12/18 01:46:09;;;;;;;93.50;34.10;;;;;;;3.72;56.27;102932.00;5032417;28;20037;-71
2022/12/18 01:48:34;;;;;;;84.00;30.83;;;;;;;3.66;56.06;102939.66;5034867;28;20032;-71
2022/12/18 01:51:00;;;;;;;95.83;31.67;;;;;;;3.33;57.24;102945.97;5034736;28;20040;-71
2022/12/18 01:53:26;;;;;;;87.37;33.40;;;;;;;3.44;56.08;102940.59;5034689;28;20029;-70
2022/12/18 01:55:56;;;;;;;89.20;32.27;;;;;;;3.81;54.97;102949.88;5034765;28;20100;-70
2022/12/18 01:58:39;;;;;;;85.82;31.95;;;;;;;3.71;54.81;102950.75;5034887;28;20081;-70
2022/12/18 02:01:05;;;;;;;86.13;31.43;;;;;;;3.77;54.50;102955.56;5032070;28;20026;-70
2022/12/18 02:03:30;;;;;;;80.97;30.07;;;;;;;3.65;55.39;102949.47;5034977;28;20052;-70
2022/12/18 02:06:06;;;;;;;76.87;29.47;;;;;;;3.64;55.05;102950.44;5034603;28;20513;-70
2022/12/18 02:08:49;;;;;;;91.43;30.37;;;;;;;3.61;54.62;102956.00;5033087;28;20033;-69
2022/12/18 02:11:33;;;;;;;78.33;29.83;;;;;;;3.08;56.30;102962.25;5042954;28;20045;-69
2022/12/18 02:14:23;;;;;;;77.40;28.53;;;;;;;3.38;55.92;102954.44;5033934;28;20025;-72
2022/12/18 02:16:52;;;;;;;88.80;30.27;;;;;;;3.21;55.51;102955.81;5032317;28;20105;-69
2022/12/18 02:19:29;;;;;;;82.23;31.07;;;;;;;3.09;55.99;102947.97;5034824;28;20383;-70
2022/12/18 02:22:06;;;;;;;85.53;30.97;;;;;;;3.20;55.09;102942.66;5033538;28;20018;-70
2022/12/18 02:24:46;;;;;;;83.33;29.23;;;;;;;3.23;56.02;102951.22;5032930;28;20075;-70
2022/12/18 02:27:12;;;;;;;82.90;29.57;;;;;;;3.21;55.50;102947.84;5033173;28;20029;-70
2022/12/18 02:29:44;;;;;;;68.27;27.67;;;;;;;3.12;55.98;102953.91;5034005;28;20542;-70
2022/12/18 02:32:16;;;;;;;75.40;29.83;;;;;;;3.15;55.27;102958.09;5031833;28;20055;-69
2022/12/18 02:34:44;;;;;;;79.70;28.63;;;;;;;3.03;55.50;102951.13;5034020;28;20116;-69
2022/12/18 02:37:13;;;;;;;78.00;29.67;;;;;;;3.35;54.74;102950.19;5033531;28;20082;-71
2022/12/18 02:39:43;;;;;;;73.17;28.80;;;;;;;3.04;55.81;102958.16;5034682;28;20021;-70
2022/12/18 02:42:09;;;;;;;70.40;28.00;;;;;;;3.24;54.49;102960.84;5009518;28;20054;-71
2022/12/18 02:44:41;;;;;;;76.33;30.80;;;;;;;3.00;55.47;102954.91;5014202;28;20117;-70
2022/12/18 02:47:12;;;;;;;82.13;29.50;;;;;;;3.42;54.24;102955.88;5011517;28;20026;-70
2022/12/18 02:50:10;;;;;;;83.93;29.97;;;;;;;2.91;55.09;102952.97;5014063;28;20113;-71
2022/12/18 02:53:04;;;;;;;84.50;29.53;;;;;;;2.87;54.88;102945.41;5012850;28;20335;-70
2022/12/18 02:55:47;;;;;;;74.67;26.70;;;;;;;2.69;55.64;102956.50;5012012;28;20110;-70
2022/12/18 02:58:40;;;;;;;75.87;28.00;;;;;;;3.02;54.60;102941.50;5012085;28;20072;-69
2022/12/18 03:01:12;;;;;;;72.20;27.90;;;;;;;2.86;54.99;102936.59;5008555;28;20519;-69
2022/12/18 03:03:50;;;;;;;77.67;29.43;;;;;;;2.85;54.68;102937.53;5013955;28;20034;-71
2022/12/18 03:06:32;;;;;;;84.20;30.90;;;;;;;2.72;55.29;102914.75;5012263;28;20044;-71
2022/12/18 03:09:02;;;;;;;66.97;26.63;;;;;;;2.81;54.90;102914.03;5012948;28;20118;-71
2022/12/18 03:14:19;;;;;;;79.03;26.97;;;;;;;2.15;56.68;102921.06;5013876;28;20099;-71
2022/12/18 03:16:49;;;;;;;73.57;28.60;;;;;;;1.95;56.78;102916.47;5013840;28;20513;-69
2022/12/18 03:19:20;;;;;;;73.27;28.63;;;;;;;2.53;54.94;102926.88;5013570;28;20030;-70
2022/12/18 03:21:53;;;;;;;78.93;26.88;;;;;;;2.42;55.13;102928.66;5013974;28;20079;-71
2022/12/18 03:24:20;;;;;;;76.43;28.43;;;;;;;2.39;56.06;102932.44;5012196;28;20100;-70
2022/12/18 03:26:51;;;;;;;74.13;27.93;;;;;;;2.36;56.00;102926.53;5013033;28;20045;-71
2022/12/18 03:29:28;;;;;;;;;;;;;;;1.93;56.41;102925.53;5013128;28;20076;-70
2022/12/18 03:31:59;;;;;;;67.10;24.63;;;;;;;2.14;55.61;102924.72;5013536;28;20435;-71
2022/12/18 03:34:31;;;;;;;68.63;27.95;;;;;;;2.48;55.29;102926.38;5011786;28;20034;-69
2022/12/18 03:36:57;;;;;;;69.33;24.60;;;;;;;2.25;55.29;102931.81;5011802;28;20054;-70
2022/12/18 03:39:24;;;;;;;66.63;27.47;;;;;;;2.11;55.67;102918.78;5013230;28;20038;-71
2022/12/18 03:42:15;;;;;;;74.13;26.57;;;;;;;1.79;56.68;102915.97;5014236;28;20083;-70
2022/12/18 03:44:47;;;;;;;66.03;26.83;;;;;;;2.47;54.70;102913.25;5032907;28;20048;-69
2022/12/18 03:47:19;;;;;;;76.03;25.77;;;;;;;2.19;54.51;102911.91;5033001;28;20056;-71
2022/12/18 03:49:56;;;;;;;78.30;27.23;;;;;;;2.14;55.43;102924.72;5032958;28;20052;-69
2022/12/18 03:52:27;;;;;;;73.17;27.13;;;;;;;2.14;55.25;102918.56;5032967;28;20482;-70
2022/12/18 03:54:55;;;;;;;74.17;25.90;;;;;;;2.30;54.84;102927.81;5033316;28;20022;-71
2022/12/18 03:57:25;;;;;;;71.07;28.23;;;;;;;2.47;54.12;102923.84;5032522;28;20048;-70
2022/12/18 03:59:55;;;;;;;72.43;27.40;;;;;;;2.30;54.99;102917.22;5032852;28;20034;-69
2022/12/18 04:02:23;;;;;;;87.45;29.92;;;;;;;2.31;54.22;102918.06;4999262;28;20443;-70
2022/12/18 04:04:57;;;;;;;77.17;26.97;;;;;;;2.43;54.28;102903.84;5032480;28;20061;-71
2022/12/18 04:07:23;;;;;;;75.20;26.20;;;;;;;2.21;54.50;102902.03;5032819;28;20030;-69
2022/12/18 04:09:52;;;;;;;69.90;26.77;;;;;;;1.91;54.82;102903.59;5033114;28;20050;-70
2022/12/18 04:12:17;;;;;;;80.60;26.57;;;;;;;2.25;54.36;102908.78;5031785;28;20485;-72
2022/12/18 04:14:43;;;;;;;65.53;27.57;;;;;;;2.20;54.13;102899.50;5032331;28;20037;-69
2022/12/18 04:17:08;;;;;;;66.30;24.97;;;;;;;2.10;54.46;102899.41;5032103;28;20049;-70
2022/12/18 04:19:33;;;;;;;77.90;27.10;;;;;;;1.97;55.19;102901.28;5031858;28;20557;-69
2022/12/18 04:21:59;;;;;;;74.20;27.43;;;;;;;2.14;54.47;102894.69;5032838;28;20038;-69
2022/12/18 04:24:24;;;;;;;61.43;24.70;;;;;;;1.86;55.04;102884.53;5032225;28;20033;-71
2022/12/18 04:26:49;;;;;;;69.30;27.10;;;;;;;2.09;54.22;102891.53;5032432;28;20064;-71
2022/12/18 04:29:15;;;;;;;61.80;23.93;;;;;;;1.90;54.76;102893.94;5014527;28;20124;-70
2022/12/18 04:31:40;;;;;;;66.37;25.27;;;;;;;2.31;54.27;102900.34;5032382;28;20037;-71
2022/12/18 04:34:06;;;;;;;77.13;26.03;;;;;;;2.38;53.75;102901.53;5032247;28;20461;-71
2022/12/18 04:36:31;;;;;;;56.53;25.23;;;;;;;2.35;53.66;102896.50;5032676;28;20032;-70
2022/12/18 04:38:56;;;;;;;70.07;24.77;;;;;;;2.46;53.78;102900.94;5032590;28;20040;-69
2022/12/18 04:41:22;;;;;;;63.90;24.93;;;;;;;2.26;54.38;102896.38;5032614;28;20124;-69
2022/12/18 04:43:47;;;;;;;58.87;23.40;;;;;;;2.28;53.79;102897.91;5031803;28;20041;-70
2022/12/18 04:46:12;;;;;;;63.73;25.17;;;;;;;2.09;53.63;102894.19;5032255;28;20075;-72
2022/12/18 04:48:38;;;;;;;69.67;24.23;;;;;;;2.49;53.16;102903.34;5032885;28;20093;-70
2022/12/18 04:51:05;;;;;;;57.10;24.83;;;;;;;2.32;53.59;102906.50;5032412;28;20052;-70
2022/12/18 04:53:30;;;;;;;79.77;23.77;;;;;;;1.99;53.46;102898.50;5032031;28;20465;-69
2022/12/18 04:56:22;;;;;;;64.77;23.70;;;;;;;2.07;53.94;102907.56;5031709;28;20087;-70
2022/12/18 04:58:47;;;;;;;73.20;24.77;;;;;;;2.16;53.86;102900.72;5027393;28;20042;-69
2022/12/18 05:01:14;;;;;;;69.83;23.47;;;;;;;2.42;53.69;102910.94;5029175;28;20037;-70
2022/12/18 05:03:40;;;;;;;56.57;22.57;;;;;;;2.35;53.11;102899.16;5031202;28;20108;-71
2022/12/18 05:06:06;;;;;;;63.17;24.43;;;;;;;2.51;53.20;102910.22;5034521;28;20038;-69
2022/12/18 05:08:32;;;;;;;57.23;21.67;;;;;;;2.34;52.97;102905.41;5033150;28;20412;-69
2022/12/18 05:11:03;;;;;;;64.60;24.57;;;;;;;2.34;53.02;102904.56;5020106;28;20128;-70
2022/12/18 05:13:30;;;;;;;65.57;23.10;;;;;;;2.28;53.00;102908.53;5013813;28;20041;-70
2022/12/18 05:15:55;;;;;;;55.83;24.47;;;;;;;2.13;53.11;102903.59;5037118;28;20034;-70
2022/12/18 05:18:22;;;;;;;56.67;24.57;;;;;;;2.33;53.42;102913.47;5031704;28;20049;-69
2022/12/18 05:20:52;;;;;;;62.50;23.67;;;;;;;2.24;53.34;102920.34;5031920;28;20041;-71
2022/12/18 05:23:18;;;;;;;61.40;25.30;;;;;;;2.12;53.15;102924.00;5032109;28;20052;-70
2022/12/18 05:25:57;;;;;;;59.93;23.27;;;;;;;2.02;53.89;102923.00;5031719;28;20599;-69
2022/12/18 05:28:24;;;;;;;57.77;21.70;;;;;;;2.27;53.34;102924.56;5031806;28;20030;-71
2022/12/18 05:30:55;;;;;;;60.67;23.90;;;;;;;2.73;52.03;102917.31;5032371;28;20033;-70
2022/12/18 05:33:27;;;;;;;55.47;21.37;;;;;;;2.33;52.57;102922.28;5031370;28;20128;-69
2022/12/18 05:35:55;;;;;;;49.27;20.67;;;;;;;2.35;52.79;102925.66;5032055;28;20064;-71
2022/12/18 05:38:23;;;;;;;66.83;23.93;;;;;;;2.36;52.84;102932.66;5031364;28;20091;-71
2022/12/18 05:40:49;;;;;;;49.90;22.60;;;;;;;2.54;52.25;102933.84;5031884;28;20038;-71
2022/12/18 05:43:15;;;;;;;51.83;21.93;;;;;;;2.33;53.04;102935.56;5030257;28;20073;-69
2022/12/18 05:45:41;;;;;;;55.60;20.83;;;;;;;2.48;52.39;102938.78;5032173;28;20095;-70
2022/12/18 05:48:07;;;;;;;52.10;22.97;;;;;;;2.40;52.20;102936.75;5031457;28;20029;-69
2022/12/18 05:50:37;;;;;;;58.17;21.43;;;;;;;2.65;51.93;102935.66;5033123;28;20049;-69
2022/12/18 05:53:03;;;;;;;55.07;21.47;;;;;;;2.52;52.27;102940.25;5035444;28;20532;-70
2022/12/18 05:55:29;;;;;;;53.83;22.57;;;;;;;2.13;52.81;102952.19;5034689;28;20045;-69
2022/12/18 05:57:54;;;;;;;46.77;20.13;;;;;;;2.43;52.44;102943.63;5035434;28;20041;-71
2022/12/18 06:00:19;;;;;;;50.67;21.17;;;;;;;2.30;52.12;102942.91;5034931;28;20097;-68
2022/12/18 06:02:48;;;;;;;51.53;20.73;;;;;;;2.34;52.26;102947.03;5035000;28;20046;-70
2022/12/18 06:05:13;;;;;;;56.80;20.23;;;;;;;2.55;52.19;102943.53;5034978;28;20569;-70
2022/12/18 06:07:38;;;;;;;48.37;19.70;;;;;;;2.12;52.91;102934.59;5034934;28;20116;-69
2022/12/18 06:10:05;;;;;;;48.97;20.50;;;;;;;1.88;53.21;102939.13;5034868;28;20029;-70
2022/12/18 06:12:30;;;;;;;46.43;20.90;;;;;;;2.44;52.96;102934.69;5035391;28;20022;-69
2022/12/18 06:14:56;;;;;;;40.10;18.80;;;;;;;2.37;52.58;102926.41;5016970;28;20129;-70
2022/12/18 06:17:22;;;;;;;46.03;20.37;;;;;;;2.43;52.09;102931.22;5034852;28;20494;-70
2022/12/18 06:19:47;;;;;;;46.03;19.83;;;;;;;1.83;53.74;102932.50;5035181;28;20053;-69
2022/12/18 06:22:12;;;;;;;47.93;21.03;;;;;;;2.17;52.80;102923.59;5034763;28;20065;-70
2022/12/18 06:24:38;;;;;;;52.03;20.33;;;;;;;2.41;52.30;102927.84;5033506;28;20064;-69
2022/12/18 06:27:03;;;;;;;40.97;18.77;;;;;;;2.57;52.14;102923.00;5034647;28;20497;-71
2022/12/18 06:29:28;;;;;;;50.50;20.47;;;;;;;2.28;52.36;102915.66;5034566;28;20441;-68
2022/12/18 06:31:54;;;;;;;49.23;19.87;;;;;;;2.05;53.03;102906.00;5034339;28;20129;-69
2022/12/18 06:34:19;;;;;;;43.97;19.83;;;;;;;2.32;52.77;102912.63;5034769;28;20037;-70
2022/12/18 06:36:44;;;;;;;42.37;18.50;;;;;;;2.31;52.43;102903.00;5034787;28;20030;-69
2022/12/18 06:39:10;;;;;;;44.07;19.40;;;;;;;2.49;52.11;102906.00;5034601;28;20459;-69
2022/12/18 06:41:35;;;;;;;41.57;19.63;;;;;;;2.55;52.11;102903.72;5034202;28;20103;-70
2022/12/18 06:44:00;;;;;;;49.13;20.23;;;;;;;2.51;52.20;102899.63;5034382;28;20121;-70
2022/12/18 06:46:26;;;;;;;41.60;17.10;;;;;;;2.51;51.83;102888.16;5034596;28;20124;-70
2022/12/18 06:48:52;;;;;;;42.57;17.33;;;;;;;2.34;52.49;102891.31;5034572;28;20506;-70
2022/12/18 06:51:22;;;;;;;49.07;20.43;;;;;;;2.22;52.72;102890.44;5016274;28;20136;-70
2022/12/18 06:53:47;;;;;;;47.00;18.90;;;;;;;2.24;52.61;102885.88;5034306;28;20033;-70
2022/12/18 06:56:13;;;;;;;53.53;19.40;;;;;;;2.16;52.64;102890.09;5016412;28;20030;-70
2022/12/18 06:58:39;;;;;;;46.80;18.73;;;;;;;1.95;53.82;102884.66;5034125;28;20574;-70
2022/12/18 07:01:07;;;;;;;47.77;20.67;;;;;;;2.20;52.85;102886.25;5033897;28;20048;-69
2022/12/18 07:03:32;;;;;;;45.80;18.40;;;;;;;2.04;53.52;102880.47;5034438;28;20038;-69
2022/12/18 07:05:58;;;;;;;55.73;20.17;;;;;;;2.00;52.79;102871.91;5034015;28;20630;-68
2022/12/18 07:08:23;;;;;;;55.57;19.43;;;;;;;1.88;53.04;102866.72;5015895;28;20120;-71
2022/12/18 07:10:49;;;;;;;49.57;19.97;;;;;;;1.58;54.33;102875.22;5015821;28;20401;-69
2022/12/18 07:13:15;;;;;;;36.20;19.03;;;;;;;1.93;53.13;102869.88;5033762;28;20409;-70
2022/12/18 07:15:41;;;;;;;41.53;19.20;;;;;;;2.12;52.41;102870.94;5034387;28;20034;-70
2022/12/18 07:18:06;;;;;;;43.77;19.83;;;;;;;1.76;53.79;102868.50;5033803;28;20052;-69
2022/12/18 07:20:32;;;;;;;50.70;20.57;;;;;;;1.93;53.31;102867.22;5033090;28;20068;-70
2022/12/18 07:22:57;;;;;;;42.13;18.33;;;;;;;2.22;52.63;102869.22;5033388;28;20065;-71
2022/12/18 07:25:22;;;;;;;42.23;17.70;;;;;;;2.12;52.75;102876.25;5033186;28;20037;-70
2022/12/18 07:27:48;;;;;;;43.93;19.37;;;;;;;2.24;52.00;102880.56;5033107;28;20059;-69
2022/12/18 07:30:13;;;;;;;49.97;18.97;;;;;;;2.60;51.45;102874.13;5032755;28;20556;-70
2022/12/18 07:32:39;;;;;;;49.77;20.20;;;;;;;2.35;51.48;102877.06;5032837;28;20075;-70
2022/12/18 07:35:04;;;;;;;41.90;18.53;;;;;;;2.43;51.20;102882.63;5031160;28;20080;-71
2022/12/18 07:37:29;;;;;;;43.87;18.90;;;;;;;2.35;51.33;102872.63;5031863;28;20045;-73
2022/12/18 07:39:55;;;;;;;44.07;19.83;;;;;;;1.99;53.25;102880.81;5015134;28;20105;-71
2022/12/18 07:42:32;;;;;;;42.40;17.90;;;;;;;1.84;53.29;102879.38;5032392;28;20042;-69
2022/12/18 07:45:01;;;;;;;36.83;16.87;;;;;;;1.57;53.86;102877.00;5032398;28;20056;-69
2022/12/18 07:47:28;;;;;;;39.23;16.50;;;;;;;1.67;53.93;102877.19;5031820;28;20039;-72
2022/12/18 07:49:53;;;;;;;40.33;19.03;;;;;;;1.70;54.26;102885.72;5014333;28;20049;-71
2022/12/18 07:52:19;;;;;;;37.90;17.20;;;;;;;2.42;52.19;102886.22;5032753;28;20454;-75
2022/12/18 07:54:45;;;;;;;41.17;18.03;;;;;;;2.11;52.60;102882.50;5033784;28;20426;-74
2022/12/18 07:57:10;;;;;;;41.10;18.00;;;;;;;2.24;52.61;102888.53;5033792;28;20041;-76
2022/12/18 07:59:36;;;;;;;42.10;17.23;;;;;;;1.98;52.86;102876.50;5033183;28;20042;-75
2022/12/18 08:02:02;;;;;;;42.07;18.33;;;;;;;2.17;52.53;102857.31;5033289;28;20065;-73
2022/12/18 08:04:28;;;;;;;35.37;17.70;;;;;;;2.21;52.40;102856.94;5014956;28;20037;-74
2022/12/18 08:06:53;;;;;;;46.13;19.93;;;;;;;2.18;53.06;102856.34;5015819;28;20068;-74
2022/12/18 08:09:18;;;;;;;40.07;16.67;;;;;;;2.15;53.65;102852.13;5033338;28;20129;-74
2022/12/18 08:11:44;;;;;;;41.43;17.80;;;;;;;2.04;54.03;102849.50;5015289;28;20076;-74
2022/12/18 08:14:10;;;;;;;38.87;16.93;;;;;;;2.60;52.28;102845.78;5032813;28;20045;-74
2022/12/18 08:16:36;;;;;;;35.40;17.10;;;;;;;2.84;51.92;102839.44;5033590;28;20040;-74
2022/12/18 08:19:01;;;;;;;38.40;17.73;;;;;;;2.39;53.08;102844.88;5033012;28;20030;-76
2022/12/18 08:21:29;;;;;;;35.47;17.63;;;;;;;2.27;53.44;102843.19;5033527;28;20550;-73
2022/12/18 08:23:57;;;;;;;43.87;16.50;;;;;;;2.97;51.65;102830.34;5032896;28;20036;-74
2022/12/18 08:26:24;;;;;;;38.17;17.27;;;;;;;2.48;52.57;102830.00;5032901;28;20042;-73
2022/12/18 08:28:50;;;;;;;32.80;15.07;;;;;;;2.62;52.30;102827.09;5032474;28;20120;-75
2022/12/18 08:31:16;;;;;;;38.00;18.23;;;;;;;1.73;54.98;102831.63;5032786;28;20051;-75
2022/12/18 08:33:42;;;;;;;33.93;15.83;;;;;;;2.25;53.34;102831.03;5033474;28;20120;-74
2022/12/18 08:36:08;;;;;;;43.13;16.87;;;;;;;2.35;53.04;102827.53;5032603;28;20034;-74
2022/12/18 08:38:34;;;;;;;35.20;15.87;;;;;;;1.90;54.73;102831.19;5032349;28;20029;-73
2022/12/18 08:41:01;;;;;;;34.40;15.87;;;;;;;2.36;54.38;102817.75;5032956;28;20038;-74
2022/12/18 08:46:10;;;;;;;32.13;14.97;;;;;;;3.14;51.91;102823.63;5032556;28;20056;-74
2022/12/18 08:48:36;;;;;;;32.73;15.90;;;;;;;3.50;51.38;102826.66;5033435;28;20017;-73
2022/12/18 08:51:01;;;;;;;34.87;15.10;;;;;;;3.47;51.23;102818.13;5030140;28;20116;-74
2022/12/18 08:53:27;;;;;;;32.10;15.47;;;;;;;3.57;50.68;102813.72;5031974;28;20103;-73
2022/12/18 08:55:52;;;;;;;31.40;15.10;;;;;;;3.47;51.66;102815.47;5014629;28;20171;-74
2022/12/18 08:58:18;;;;;;;35.50;14.93;;;;;;;3.12;52.55;102828.22;5032361;28;20096;-73
2022/12/18 09:00:43;;;;;;;30.30;15.37;;;;;;;3.53;51.73;102829.09;5032109;28;20057;-73
2022/12/18 09:03:13;;;;;;;32.47;16.07;;;;;;;3.83;50.37;102827.41;5013695;28;20048;-73
2022/12/18 09:05:39;;;;;;;28.37;14.37;;;;;;;3.31;51.39;102836.34;5032446;28;20113;-75
2022/12/18 09:08:04;;;;;;;34.47;15.93;;;;;;;3.48;51.82;102823.31;5032752;28;20462;-75
2022/12/18 09:10:30;;;;;;;29.60;14.43;;;;;;;3.50;51.81;102831.97;5029721;28;20371;-74
2022/12/18 09:12:56;;;;;;;27.23;13.77;;;;;;;3.84;51.13;102829.09;5014290;28;20424;-73
2022/12/18 09:15:21;;;;;;;37.23;15.70;;;;;;;3.13;52.44;102820.13;5012063;28;20064;-75
2022/12/18 09:17:47;;;;;;;27.97;14.67;;;;;;;3.73;52.10;102810.56;5031642;28;20081;-74
2022/12/18 09:20:13;;;;;;;30.47;14.23;;;;;;;3.29;52.79;102817.88;5012867;28;20034;-74
2022/12/18 09:22:39;;;;;;;31.27;14.80;;;;;;;3.41;52.48;102816.84;5031693;28;20068;-74
2022/12/18 09:25:07;;;;;;;28.50;13.90;;;;;;;3.47;51.58;102818.97;5032561;28;20025;-74
2022/12/18 09:27:32;;;;;;;27.57;13.70;;;;;;;3.11;53.90;102818.56;5036052;28;20048;-74
2022/12/18 09:29:58;;;;;;;31.13;14.17;;;;;;;3.81;52.06;102832.03;5034929;28;20108;-73
2022/12/18 09:32:23;;;;;;;26.67;12.13;;;;;;;4.20;51.05;102829.41;5035664;28;20030;-76
2022/12/18 09:34:49;;;;;;;27.20;13.37;;;;;;;4.06;51.29;102834.22;5033334;28;20102;-74
2022/12/18 09:37:14;;;;;;;28.27;13.77;;;;;;;3.68;52.40;102826.06;5017309;28;20042;-76
2022/12/18 09:39:39;;;;;;;25.60;13.47;;;;;;;3.77;52.51;102827.94;5036011;28;20032;-73
2022/12/18 09:42:06;;;;;;;32.93;14.23;;;;;;;4.57;50.30;102836.75;5035278;28;20046;-73
2022/12/18 09:44:45;;;;;;;24.10;12.93;;;;;;;4.31;51.02;102839.06;5035410;28;20042;-74
2022/12/18 09:47:22;;;;;;;23.63;11.87;;;;;;;4.33;50.65;102845.09;5032919;28;20038;-73
2022/12/18 09:49:56;;;;;;;22.23;11.83;;;;;;;4.18;50.85;102838.47;5034805;28;20033;-76
2022/12/18 09:52:27;;;;;;;25.90;12.20;;;;;;;4.99;49.22;102820.38;5034987;28;20041;-74
2022/12/18 09:54:59;;;;;;;25.63;13.07;;;;;;;4.76;49.54;102808.34;5033216;28;20037;-75
2022/12/18 09:57:25;;;;;;;23.63;13.37;;;;;;;4.03;51.74;102811.38;5034318;28;20037;-74
2022/12/18 10:00:08;;;;;;;20.43;10.67;;;;;;;4.86;50.94;102793.19;5033295;28;20588;-77
2022/12/18 10:02:34;;;;;;;23.83;12.23;;;;;;;4.92;50.19;102770.47;5033422;28;20038;-75
2022/12/18 10:05:05;;;;;;;22.43;11.63;;;;;;;4.85;50.43;102764.06;5034241;28;20042;-73
2022/12/18 10:07:50;;;;;;;;;;;;;;;4.68;50.06;102748.78;5032298;28;20060;-75
2022/12/18 10:10:31;;;;;;;16.23;8.77;;;;;;;4.94;49.54;102745.41;5030217;28;19913;-76
2022/12/18 10:13:07;;;;;;;16.33;9.73;;;;;;;4.19;50.45;102744.38;5032524;28;20056;-74
2022/12/18 10:15:44;;;;;;;17.53;9.80;;;;;;;4.80;49.71;102740.50;5032889;28;20109;-75
2022/12/18 10:18:44;;;;;;;24.40;11.30;;;;;;;5.07;50.10;102739.78;5031863;28;20038;-74
2022/12/18 10:21:15;;;;;;;20.40;9.87;;;;;;;4.37;50.59;102729.41;5031714;28;20116;-75
2022/12/18 10:24:01;;;;;;;16.47;8.70;;;;;;;4.76;50.20;102724.94;5033561;28;20793;-75
2022/12/18 10:26:27;;;;;;;21.40;10.27;;;;;;;5.05;50.49;102717.75;5034078;28;20041;-75
2022/12/18 10:28:53;;;;;;;19.47;10.63;;;;;;;4.98;49.54;102725.47;5034165;28;20037;-76
2022/12/18 10:31:21;;;;;;;20.40;9.70;;;;;;;5.28;49.34;102717.28;5033855;28;20025;-76
2022/12/18 10:33:47;;;;;;;16.50;8.73;;;;;;;4.92;49.44;102715.38;5031117;28;20035;-76
2022/12/18 10:36:13;;;;;;;16.53;9.17;;;;;;;4.84;49.92;102725.06;5033158;28;20096;-76
2022/12/18 10:38:39;;;;;;;20.00;9.40;;;;;;;4.64;50.06;102728.75;5034557;28;20037;-75
2022/12/18 10:41:25;;;;;;;14.87;8.73;;;;;;;5.47;48.51;102719.03;5033986;28;20068;-73
2022/12/18 10:44:12;;;;;;;13.73;8.80;;;;;;;5.69;48.13;102718.66;5033090;28;20042;-76
2022/12/18 10:46:38;;;;;;;17.93;9.53;;;;;;;6.17;47.17;102721.91;5034767;28;20036;-75
2022/12/18 10:49:04;;;;;;;15.80;9.03;;;;;;;5.70;47.79;102712.31;5034764;28;20017;-75
2022/12/18 10:51:33;;;;;;;18.03;9.43;;;;;;;5.60;48.47;102703.53;5032990;28;20030;-74
2022/12/18 10:54:21;;;;;;;16.87;10.10;;;;;;;6.23;47.81;102702.63;5033579;28;20030;-74
2022/12/18 10:56:47;;;;;;;14.60;8.90;;;;;;;5.63;48.46;102697.91;5033724;28;20037;-75
2022/12/18 10:59:15;;;;;;;18.27;9.23;;;;;;;5.55;48.68;102684.47;5033261;28;20370;-75
2022/12/18 11:01:57;;;;;;;16.80;9.17;;;;;;;5.99;48.09;102690.88;5033753;28;20037;-76
2022/12/18 11:04:29;;;;;;;14.20;9.17;;;;;;;6.60;47.10;102688.31;5033169;28;20038;-76
2022/12/18 11:07:03;;;;;;;18.77;10.93;;;;;;;6.12;47.30;102691.34;5031850;28;20531;-75
2022/12/18 11:09:36;;;;;;;15.63;9.23;;;;;;;6.24;47.38;102692.81;5012559;28;20370;-75
2022/12/18 11:12:06;;;;;;;19.20;8.67;;;;;;;6.22;47.73;102694.78;5031390;28;20025;-73
2022/12/18 11:14:51;;;;;;;12.50;7.87;;;;;;;6.61;46.60;102693.50;5032834;28;20061;-74
2022/12/18 11:17:19;;;;;;;15.60;8.67;;;;;;;6.38;47.29;102691.44;5031911;28;20041;-74
2022/12/18 11:19:53;;;;;;;16.33;8.97;;;;;;;6.63;46.81;102693.31;5015008;28;20040;-74
2022/12/18 11:22:27;;;;;;;13.87;8.43;;;;;;;6.73;46.35;102697.59;5032425;28;20064;-74
2022/12/18 11:24:54;;;;;;;13.80;8.87;;;;;;;6.98;46.10;102698.59;5030903;28;20187;-73
2022/12/18 11:27:20;;;;;;;20.03;9.10;;;;;;;6.50;47.16;102699.06;5030708;28;20030;-73
2022/12/18 11:29:50;;;;;;;16.10;9.17;;;;;;;6.81;46.43;102708.34;5032948;28;20064;-74
2022/12/18 11:32:15;;;;;;;16.43;9.20;;;;;;;7.30;45.36;102697.97;5032205;28;20090;-75